Flag for Denmark

Past Weather in 56°09'12.9"N, 10°13'12.1"E, Denmark — Yesterday and Last 2 Weeks

Currently: 72 °F. Clear. (Weather station: Tirstrup, Denmark). See more current weather

Past Weather in 56°09'12.9"N, 10°13'12.1"E — Graph

°F

56°09'12.9"N, 10°13'12.1"E Temperature Yesterday

Maximum temperature yesterday: 70 °F (at 2:50 pm)
Minimum temperature yesterday: 57 °F (at 12:20 am)
Average temperature yesterday: 62 °F

High & Low Weather Summary for the Past Weeks

 TemperatureHumidityPressure
High73 °F (May 15, 3:50 pm)100% (May 5, 5:50 am)30.33 "Hg (May 5, 5:50 am)
Low41 °F (May 8, 1:20 am)30% (May 13, 4:20 pm)29.65 "Hg (May 5, 5:20 pm)
Average57 °F67%30.07 "Hg
* Reported May 3 5:20 pm — May 18 5:20 pm, 56°09'12.9"N, 10°13'12.1"E. Weather by CustomWeather, © 2024

Note: Actual official high and low records may vary slightly from our data, if they occured in-between our weather recording intervals... More about our weather records

56°09'12.9"N, 10°13'12.1"E Weather History for the Previous 24 Hours

Scroll right to see more
 ConditionsComfort  
Time TempWeatherWind HumidityBarometerVisibility
5:20 pm
Sat, May 18
72 °FClear.7 mph33%29.95 "HgN/A
4:50 pm72 °FClear.9 mph33%29.95 "HgN/A
4:20 pm72 °FClear.10 mph38%29.98 "HgN/A
3:20 pm72 °FClear.10 mph36%29.98 "HgN/A
2:50 pm70 °FClear.8 mph40%29.98 "HgN/A
2:20 pm70 °FClear.9 mph38%29.98 "HgN/A
1:50 pm70 °FClear.9 mph40%29.98 "HgN/A
1:20 pm70 °FClear.9 mph43%29.98 "HgN/A
12:50 pm70 °FClear.8 mph43%29.98 "HgN/A
12:20 pm68 °FClear.8 mph49%29.98 "HgN/A
11:50 am68 °FClear.7 mph49%30.01 "HgN/A
11:20 am66 °FClear.8 mph52%30.01 "HgN/A
10:50 am66 °FClear.7 mph56%30.01 "HgN/A
10:20 am64 °FClear.7 mph56%30.01 "HgN/A
9:50 am63 °FClear.8 mph59%30.01 "HgN/A
8:50 am61 °FClear.8 mph59%30.01 "HgN/A
8:20 am59 °FClear.9 mph63%30.01 "HgN/A
7:50 am59 °FClear.8 mph68%30.01 "HgN/A
7:20 am57 °FClear.6 mph72%30.01 "HgN/A
6:50 am55 °FClear.6 mph77%29.98 "HgN/A
6:20 am54 °FClear.6 mph77%29.98 "HgN/A
5:50 am54 °FClear.1 mph77%29.98 "HgN/A
5:20 am54 °FClear.8 mph72%29.98 "HgN/A
4:50 am52 °FClear.6 mph72%29.98 "HgN/A
4:20 am52 °FClear.6 mph72%29.98 "HgN/A
3:50 am52 °FClear.5 mph72%30.01 "HgN/A
3:20 am55 °FClear.7 mph63%30.01 "HgN/A
2:50 am57 °FClear.7 mph55%30.01 "HgN/A
1:50 am57 °FClear.9 mph55%30.01 "HgN/A
1:20 am57 °FClear.9 mph51%30.01 "HgN/A
12:50 am55 °FClear.6 mph59%30.01 "HgN/A
12:20 am55 °FClear.5 mph63%30.01 "HgN/A
11:50 pm
Fri, May 17
57 °FClear.6 mph59%30.04 "HgN/A
11:20 pm57 °FClear.6 mph59%30.04 "HgN/A
10:50 pm57 °FClear.7 mph59%30.04 "HgN/A
10:20 pm59 °FClear.8 mph51%30.04 "HgN/A
9:50 pm59 °FClear.9 mph51%30.04 "HgN/A
9:20 pm61 °FClear.10 mph48%30.04 "HgN/A
8:50 pm63 °FClear.12 mph42%30.04 "HgN/A
7:50 pm64 °FClear.13 mph40%30.01 "HgN/A
7:20 pm66 °FSunny.14 mph37%30.01 "Hg10 mi
Weather by CustomWeather, © 2024

See weather overview